createdAt,value
2023-05-10T00:04:49.921Z,64.27
2023-05-10T00:09:52.506Z,64.99
2023-05-10T00:14:54.618Z,66.03
2023-05-10T00:19:56.958Z,67.15
2023-05-10T00:24:59.604Z,68.10
2023-05-10T00:30:01.753Z,68.78
2023-05-10T00:35:04.075Z,69.54
2023-05-10T00:40:07.410Z,70.18
2023-05-10T00:45:09.843Z,70.93
2023-05-10T00:50:12.073Z,71.97
2023-05-10T00:55:14.430Z,72.83
2023-05-10T01:00:19.954Z,73.32
2023-05-10T01:05:22.272Z,73.61
2023-05-10T01:10:24.856Z,74.24
2023-05-10T01:15:27.855Z,74.71
2023-05-10T01:20:49.710Z,75.12
2023-05-10T01:26:00.591Z,75.57
2023-05-10T01:31:24.620Z,74.11
2023-05-10T01:36:48.670Z,73.79
2023-05-10T01:42:03.243Z,73.56
2023-05-10T01:47:40.778Z,73.41
2023-05-10T01:52:46.477Z,73.08
2023-05-10T01:57:54.736Z,72.78
2023-05-10T02:02:58.158Z,72.85
2023-05-10T02:08:02.361Z,72.67
2023-05-10T02:13:07.339Z,72.09
2023-05-10T02:18:11.912Z,70.81
2023-05-10T02:23:16.546Z,70.08
2023-05-10T02:28:20.107Z,69.38
2023-05-10T02:33:23.369Z,68.91
2023-05-10T02:38:27.920Z,68.74
2023-05-10T02:43:33.355Z,68.20
2023-05-10T02:48:35.545Z,67.71
2023-05-10T02:53:42.025Z,67.50
2023-05-10T02:58:44.230Z,67.11
2023-05-10T03:03:46.378Z,66.94
2023-05-10T03:08:48.620Z,66.31
2023-05-10T03:14:27.154Z,65.99
2023-05-10T03:19:41.085Z,66.81
2023-05-10T03:24:44.164Z,67.60
2023-05-10T03:29:47.530Z,67.97
2023-05-10T03:34:49.726Z,68.60
2023-05-10T03:39:51.932Z,68.00
2023-05-10T03:44:54.211Z,67.44
2023-05-10T03:49:56.725Z,67.26
2023-05-10T03:54:58.868Z,67.20
2023-05-10T04:00:01.290Z,67.14
2023-05-10T04:05:03.622Z,67.10
2023-05-10T04:10:06.247Z,67.20
2023-05-10T04:15:09.241Z,66.39
2023-05-10T04:20:12.108Z,66.43
2023-05-10T04:25:14.352Z,67.05
2023-05-10T04:30:16.778Z,67.24
2023-05-10T04:35:19.245Z,67.45
2023-05-10T04:40:21.780Z,67.96
2023-05-10T04:45:23.969Z,68.52
2023-05-10T04:50:26.098Z,68.97
2023-05-10T04:55:28.474Z,69.48
2023-05-10T05:00:30.579Z,70.59
2023-05-10T05:05:32.742Z,71.12
2023-05-10T05:10:34.906Z,69.93
2023-05-10T05:15:37.103Z,69.75
2023-05-10T05:20:39.302Z,69.09
2023-05-10T05:25:41.463Z,68.20
2023-05-10T05:30:43.572Z,67.07
2023-05-10T05:35:48.599Z,65.41
2023-05-10T05:40:50.861Z,63.55
2023-05-10T05:45:59.073Z,62.32
2023-05-10T05:51:01.504Z,61.78
2023-05-10T05:56:04.855Z,61.78
2023-05-10T06:01:07.022Z,63.03
2023-05-10T06:06:09.208Z,63.21
2023-05-10T06:11:11.497Z,62.95
2023-05-10T06:16:14.283Z,63.38
2023-05-10T06:21:17.264Z,63.68
2023-05-10T06:26:19.438Z,62.11
2023-05-10T06:31:22.106Z,61.35
2023-05-10T06:36:26.068Z,59.57
2023-05-10T06:41:28.314Z,58.94
2023-05-10T06:46:36.461Z,58.95
2023-05-10T06:51:38.578Z,59.96
2023-05-10T06:56:40.748Z,59.42
2023-05-10T07:01:43.227Z,57.95
2023-05-10T07:06:47.297Z,57.39
2023-05-10T07:11:49.396Z,55.24
2023-05-10T07:16:51.595Z,55.00
2023-05-10T07:21:53.714Z,53.58
2023-05-10T07:26:55.939Z,52.80
2023-05-10T07:31:59.005Z,52.97
2023-05-10T07:37:02.094Z,51.49
2023-05-10T07:42:04.436Z,49.35
2023-05-10T07:47:06.650Z,46.12
2023-05-10T07:52:08.838Z,45.12
2023-05-10T07:57:11.009Z,45.04
2023-05-10T08:02:13.281Z,41.54
2023-05-10T08:07:15.510Z,44.51
2023-05-10T08:12:17.740Z,40.70
2023-05-10T08:17:20.932Z,43.29
2023-05-10T08:22:24.271Z,43.51
2023-05-10T08:27:26.482Z,44.84
2023-05-10T08:32:28.673Z,41.21
2023-05-10T08:37:31.415Z,41.77
2023-05-10T08:42:37.104Z,45.46
2023-05-10T08:47:40.519Z,42.95
2023-05-10T08:52:43.070Z,35.57
2023-05-10T08:57:45.690Z,37.99
2023-05-10T09:02:50.673Z,33.84
2023-05-10T09:07:53.865Z,33.50
2023-05-10T09:12:59.355Z,31.30
2023-05-10T09:18:03.739Z,31.72
2023-05-10T09:23:06.817Z,29.40
2023-05-10T09:28:10.653Z,31.35
2023-05-10T09:33:12.851Z,28.20
2023-05-10T09:38:14.977Z,29.17
2023-05-10T09:43:17.111Z,27.43
2023-05-10T09:48:19.237Z,30.32
2023-05-10T09:53:21.386Z,27.30
2023-05-10T09:58:23.516Z,29.84
2023-05-10T10:03:26.539Z,28.20
2023-05-10T10:08:30.163Z,29.85
2023-05-10T10:13:33.160Z,26.86
2023-05-10T10:18:39.822Z,27.65
2023-05-10T10:23:42.062Z,26.69
2023-05-10T10:28:48.334Z,25.95
2023-05-10T10:33:56.634Z,25.50
2023-05-10T10:39:02.620Z,26.80
2023-05-10T10:44:35.317Z,29.73
2023-05-10T10:49:49.319Z,32.00
2023-05-10T10:54:53.392Z,33.44
2023-05-10T11:00:21.439Z,28.22
2023-05-10T11:05:29.678Z,29.86
2023-05-10T11:10:31.901Z,23.30
2023-05-10T11:15:39.297Z,22.22
2023-05-10T11:20:41.580Z,24.50
2023-05-10T11:25:45.213Z,23.93
2023-05-10T11:30:48.172Z,21.28
2023-05-10T11:35:50.413Z,20.04
2023-05-10T11:40:52.943Z,25.63
2023-05-10T11:45:55.957Z,18.82
2023-05-10T11:50:58.999Z,24.31
2023-05-10T11:56:08.063Z,25.38
2023-05-10T12:01:11.337Z,29.78
2023-05-10T12:06:13.627Z,31.97
2023-05-10T12:11:18.734Z,33.95
2023-05-10T12:16:23.546Z,33.62
2023-05-10T12:21:26.718Z,33.10
2023-05-10T12:26:30.128Z,32.21
2023-05-10T12:31:32.304Z,32.75
2023-05-10T12:36:39.694Z,31.80
2023-05-10T12:41:43.578Z,31.81
2023-05-10T12:46:45.943Z,30.92
2023-05-10T12:51:48.077Z,29.35
2023-05-10T12:56:50.181Z,31.28
2023-05-10T13:01:52.345Z,32.03
2023-05-10T13:06:56.541Z,32.43
2023-05-10T13:11:58.894Z,31.53
2023-05-10T13:17:01.176Z,29.85
2023-05-10T13:22:04.180Z,31.28
2023-05-10T13:27:06.484Z,31.08
2023-05-10T13:32:08.872Z,26.35
2023-05-10T13:37:11.088Z,26.47
2023-05-10T13:42:13.249Z,27.55
2023-05-10T13:47:15.741Z,27.86
2023-05-10T13:52:17.917Z,30.26
2023-05-10T13:57:20.070Z,26.35
2023-05-10T14:02:22.276Z,27.61
2023-05-10T14:07:24.447Z,27.90
2023-05-10T14:12:26.810Z,25.45
2023-05-10T14:17:28.973Z,25.22
2023-05-10T14:22:31.082Z,25.80
2023-05-10T14:27:33.631Z,23.24
2023-05-10T14:32:37.646Z,23.65
2023-05-10T14:37:40.061Z,22.07
2023-05-10T14:42:43.460Z,23.17
2023-05-10T14:47:45.587Z,24.83
2023-05-10T14:52:48.081Z,25.73
2023-05-10T14:57:51.704Z,26.02
2023-05-10T15:02:53.907Z,28.70
2023-05-10T15:07:56.878Z,31.88
2023-05-10T15:12:59.223Z,32.19
2023-05-10T15:18:01.479Z,32.19
2023-05-10T15:23:04.031Z,32.67
2023-05-10T15:28:06.177Z,32.66
2023-05-10T15:33:09.713Z,33.26
2023-05-10T15:38:12.614Z,33.54
2023-05-10T15:43:15.104Z,34.11
2023-05-10T15:48:17.406Z,34.42
2023-05-10T15:53:19.685Z,35.09
2023-05-10T15:58:21.878Z,32.86
2023-05-10T16:03:25.123Z,34.17
2023-05-10T16:08:30.759Z,34.32
2023-05-10T16:13:32.926Z,35.35
2023-05-10T16:18:35.765Z,34.45
2023-05-10T16:23:38.076Z,34.78
2023-05-10T16:28:41.004Z,34.94
2023-05-10T16:33:43.704Z,34.86
2023-05-10T16:38:45.936Z,35.31
2023-05-10T16:43:48.217Z,36.30
2023-05-10T16:48:50.395Z,36.58
2023-05-10T16:53:53.532Z,37.33
2023-05-10T16:58:55.686Z,38.53
2023-05-10T17:03:57.977Z,39.93
2023-05-10T17:09:01.124Z,40.99
2023-05-10T17:14:03.399Z,41.84
2023-05-10T17:19:05.928Z,42.27
2023-05-10T17:24:08.326Z,42.85
2023-05-10T17:29:10.879Z,43.35
2023-05-10T17:34:13.201Z,43.71
2023-05-10T17:39:15.635Z,44.40
2023-05-10T17:44:17.815Z,44.55
2023-05-10T17:49:19.930Z,44.50
2023-05-10T17:54:22.257Z,44.83
2023-05-10T17:59:24.384Z,45.15
2023-05-10T18:04:26.614Z,45.21
2023-05-10T18:09:29.306Z,46.25
2023-05-10T18:14:40.424Z,46.42
2023-05-10T18:19:43.125Z,46.61
2023-05-10T18:24:47.100Z,46.57
2023-05-10T18:29:49.291Z,46.43
2023-05-10T18:34:52.454Z,46.58
2023-05-10T18:39:56.430Z,47.20
2023-05-10T18:44:58.573Z,46.84
2023-05-10T18:50:00.989Z,46.90
2023-05-10T18:55:03.616Z,46.67
2023-05-10T19:00:07.151Z,46.54
2023-05-10T19:05:09.959Z,46.82
2023-05-10T19:10:15.555Z,46.88
2023-05-10T19:15:19.403Z,46.66
2023-05-10T19:20:24.649Z,46.91
2023-05-10T19:25:29.431Z,47.31
2023-05-10T19:30:31.824Z,47.76
2023-05-10T19:35:34.081Z,47.89
2023-05-10T19:40:36.547Z,48.48
2023-05-10T19:45:38.771Z,48.59
2023-05-10T19:50:41.089Z,49.22
2023-05-10T19:55:43.247Z,49.51
2023-05-10T20:00:45.596Z,49.22
2023-05-10T20:05:47.723Z,49.51
2023-05-10T20:10:49.829Z,48.40
2023-05-10T20:15:59.492Z,47.96
2023-05-10T20:21:01.739Z,47.62
2023-05-10T20:26:04.544Z,47.90
2023-05-10T20:31:06.703Z,47.56
2023-05-10T20:36:09.725Z,48.17
2023-05-10T20:41:12.021Z,47.72
2023-05-10T20:46:14.273Z,47.40
2023-05-10T20:51:16.420Z,47.79
2023-05-10T20:56:18.981Z,48.36
2023-05-10T21:01:21.161Z,48.19
2023-05-10T21:06:23.304Z,48.84
2023-05-10T21:11:25.741Z,48.47
2023-05-10T21:16:28.246Z,48.69
2023-05-10T21:21:30.482Z,49.38
2023-05-10T21:26:32.692Z,50.39
2023-05-10T21:31:34.922Z,50.95
2023-05-10T21:36:37.094Z,51.64
2023-05-10T21:41:39.266Z,51.53
2023-05-10T21:46:41.432Z,51.22
2023-05-10T21:51:43.876Z,51.55
2023-05-10T21:56:46.052Z,51.69
2023-05-10T22:01:48.194Z,51.58
2023-05-10T22:06:50.637Z,51.12
2023-05-10T22:11:52.793Z,50.98
2023-05-10T22:16:54.977Z,51.01
2023-05-10T22:21:57.206Z,51.23
2023-05-10T22:26:59.550Z,50.79
2023-05-10T22:32:05.680Z,50.76
2023-05-10T22:37:07.900Z,50.76
2023-05-10T22:42:10.154Z,50.58
2023-05-10T22:47:12.346Z,50.31
2023-05-10T22:52:14.442Z,50.99
2023-05-10T22:57:17.293Z,51.34
2023-05-10T23:02:19.537Z,50.85
2023-05-10T23:07:22.012Z,49.44
2023-05-10T23:12:24.226Z,49.27
2023-05-10T23:17:26.384Z,50.01
2023-05-10T23:22:28.552Z,50.93
2023-05-10T23:27:31.056Z,51.19
2023-05-10T23:32:33.308Z,50.59
2023-05-10T23:37:36.644Z,49.43
2023-05-10T23:42:38.941Z,50.26
2023-05-10T23:47:41.594Z,50.15
2023-05-10T23:52:43.749Z,50.60
2023-05-10T23:57:46.093Z,51.03
